Time;durP1;ratioP1;P1;durP2;ratioP2;P2;SDS_P1;SDS_P2;PMS_P1;PMS_P2;Temp;Humidity;BMP_temperature;BMP_pressure;BME280_temperature;BME280_humidity;BME280_pressure;Samples;Min_cycle;Max_cycle;Signal;HPM_P1;HPM_P2
2023/07/01 00:00:57;;;;;;;7.95;2.40;;;16.70;1.00;;;;;;5135020;28;20144;-25
2023/07/01 00:03:23;;;;;;;7.15;1.80;;;16.70;1.00;;;;;;5116181;28;20050;-24
2023/07/01 00:05:49;;;;;;;9.93;2.42;;;16.70;1.00;;;;;;5134465;28;20039;-25
2023/07/01 00:08:15;;;;;;;7.38;2.28;;;16.70;1.00;;;;;;5136165;27;20047;-25
2023/07/01 00:10:41;;;;;;;11.02;2.35;;;16.70;1.00;;;;;;5120456;27;20044;-24
2023/07/01 00:13:07;;;;;;;15.02;3.03;;;16.70;99.90;;;;;;5102999;27;20053;-25
2023/07/01 00:15:33;;;;;;;13.10;2.60;;;16.80;99.90;;;;;;5138509;27;20047;-25
2023/07/01 00:18:00;;;;;;;7.38;2.00;;;16.80;99.90;;;;;;5138431;27;20043;-25
2023/07/01 00:20:31;;;;;;;4.25;1.58;;;16.80;99.90;;;;;;5138134;27;20472;-25
2023/07/01 00:22:56;;;;;;;8.57;1.80;;;16.80;99.90;;;;;;5138406;27;20043;-25
2023/07/01 00:25:23;;;;;;;6.18;1.83;;;16.80;99.90;;;;;;5138369;27;20039;-24
2023/07/01 00:27:49;;;;;;;7.63;2.45;;;16.80;99.90;;;;;;5138245;27;20055;-25
2023/07/01 00:30:15;;;;;;;5.20;2.05;;;16.80;99.90;;;;;;5119778;27;20050;-25
2023/07/01 00:32:40;;;;;;;9.52;2.78;;;16.80;99.90;;;;;;5138080;27;20364;-25
2023/07/01 00:35:06;;;;;;;9.20;2.63;;;16.80;99.90;;;;;;5138181;27;20043;-25
2023/07/01 00:37:32;;;;;;;10.13;2.38;;;16.70;99.90;;;;;;5120004;27;20120;-25
2023/07/01 00:39:58;;;;;;;7.18;2.25;;;16.80;99.90;;;;;;5120522;27;20074;-25
2023/07/01 00:42:23;;;;;;;7.28;1.83;;;16.70;99.90;;;;;;5138279;27;20043;-25
2023/07/01 00:44:49;;;;;;;8.20;2.25;;;16.70;99.90;;;;;;5137948;27;20050;-25
2023/07/01 00:47:15;;;;;;;11.50;2.35;;;16.70;99.90;;;;;;5102676;27;20444;-25
2023/07/01 00:49:42;;;;;;;5.85;2.03;;;16.70;99.90;;;;;;5119700;27;20041;-25
2023/07/01 00:52:07;;;;;;;7.22;1.88;;;16.80;99.90;;;;;;5137806;27;20078;-25
2023/07/01 00:54:35;;;;;;;6.28;2.30;;;16.80;1.00;;;;;;5138522;27;20071;-25
2023/07/01 00:57:03;;;;;;;7.18;1.77;;;16.80;1.00;;;;;;5137744;27;20043;-25
2023/07/01 00:59:32;;;;;;;14.30;2.22;;;16.80;1.00;;;;;;5138770;27;20046;-24
2023/07/01 01:02:03;;;;;;;4.95;1.73;;;16.80;1.00;;;;;;5119907;27;20094;-26
2023/07/01 01:04:47;;;;;;;6.30;2.17;;;16.80;1.00;;;;;;5137658;27;20055;-25
2023/07/01 01:07:23;;;;;;;6.47;1.95;;;16.90;1.00;;;;;;5119728;27;20047;-24
2023/07/01 01:09:55;;;;;;;4.90;1.90;;;16.90;1.00;;;;;;5120230;27;20084;-25
2023/07/01 01:12:27;;;;;;;8.57;2.25;;;16.90;1.00;;;;;;5137948;27;20384;-25
2023/07/01 01:14:54;;;;;;;11.50;3.10;;;16.90;1.00;;;;;;5119800;27;20104;-25
2023/07/01 01:17:21;;;;;;;6.13;1.60;;;16.90;1.00;;;;;;5102827;27;20389;-25
2023/07/01 01:19:52;;;;;;;7.35;2.03;;;16.90;1.00;;;;;;5136592;27;20066;-25
2023/07/01 01:22:49;;;;;;;9.88;2.17;;;17.00;1.00;;;;;;5138124;27;20043;-26
2023/07/01 01:25:27;;;;;;;7.07;2.05;;;17.00;1.00;;;;;;5138064;27;20438;-25
2023/07/01 01:27:55;;;;;;;5.57;1.80;;;16.90;1.00;;;;;;5137454;27;20437;-24
2023/07/01 01:30:24;;;;;;;7.30;2.38;;;16.90;99.90;;;;;;5136967;27;20039;-24
2023/07/01 01:32:50;;;;;;;10.63;2.47;;;16.80;1.00;;;;;;5136964;27;20047;-24
2023/07/01 01:35:16;;;;;;;6.28;2.10;;;16.40;1.00;;;;;;5136971;27;20039;-24
2023/07/01 01:37:45;;;;;;;10.57;2.35;;;16.20;99.90;;;;;;5119045;27;20047;-24
2023/07/01 01:40:29;;;;;;;10.57;2.38;;;16.10;1.00;;;;;;5118560;27;20042;-23
2023/07/01 01:43:07;;;;;;;12.25;2.70;;;15.90;99.90;;;;;;5136915;27;20039;-23
2023/07/01 01:45:34;;;;;;;10.10;2.22;;;15.70;1.00;;;;;;5137644;27;20047;-23
2023/07/01 01:48:01;;;;;;;13.05;2.58;;;15.60;29.40;;;;;;5136990;27;20049;-23
2023/07/01 01:50:27;;;;;;;5.95;2.22;;;15.50;99.90;;;;;;5136674;27;20094;-23
2023/07/01 01:52:54;;;;;;;8.32;2.45;;;15.40;99.90;;;;;;5101309;27;20035;-23
2023/07/01 01:55:21;;;;;;;7.97;2.70;;;15.40;99.90;;;;;;5136582;27;20053;-22
2023/07/01 01:57:47;;;;;;;5.93;3.13;;;15.30;1.00;;;;;;5137322;27;20093;-21
2023/07/01 02:00:13;;;;;;;9.93;2.78;;;15.30;1.00;;;;;;5136487;27;20059;-21
2023/07/01 02:02:39;;;;;;;6.28;2.20;;;15.30;99.90;;;;;;5136476;27;20070;-22
2023/07/01 02:05:05;;;;;;;4.65;2.20;;;15.20;3.30;;;;;;5137189;27;20065;-22
2023/07/01 02:07:31;;;;;;;8.38;2.80;;;15.30;95.30;;;;;;5136618;27;20039;-22
2023/07/01 02:09:57;;;;;;;9.10;2.95;;;15.30;61.20;;;;;;5118155;27;20050;-22
2023/07/01 02:12:23;;;;;;;8.43;3.33;;;15.30;10.10;;;;;;5136707;27;20091;-22
2023/07/01 02:14:49;;;;;;;8.52;2.85;;;15.40;6.00;;;;;;5136189;27;20127;-22
2023/07/01 02:17:15;;;;;;;5.35;2.72;;;15.50;48.00;;;;;;5118301;27;20100;-22
2023/07/01 02:19:41;;;;;;;6.72;2.40;;;15.50;70.30;;;;;;5136098;27;20047;-22
2023/07/01 02:22:06;;;;;;;6.97;2.80;;;15.60;1.00;;;;;;5100634;27;20043;-23
2023/07/01 02:24:32;;;;;;;7.50;3.55;;;15.60;7.20;;;;;;5100981;27;20055;-23
2023/07/01 02:26:59;;;;;;;5.63;2.90;;;15.60;1.00;;;;;;5117781;27;20055;-23
2023/07/01 02:29:25;;;;;;;6.50;2.60;;;15.70;1.00;;;;;;5135896;27;20055;-23
2023/07/01 02:31:50;;;;;;;7.40;2.92;;;15.80;1.00;;;;;;5116637;27;20130;-23
2023/07/01 02:34:27;;;;;;;8.30;3.00;;;15.80;1.00;;;;;;5136346;27;20087;-23
2023/07/01 02:36:54;;;;;;;10.45;3.58;;;15.80;1.00;;;;;;5136384;27;20043;-23
2023/07/01 02:39:20;;;;;;;9.30;3.50;;;15.90;1.00;;;;;;5135686;27;20072;-23
2023/07/01 02:41:45;;;;;;;9.50;3.33;;;15.90;1.00;;;;;;5136486;27;20043;-23
2023/07/01 02:44:11;;;;;;;6.20;2.40;;;16.00;1.00;;;;;;5135593;27;20469;-23
2023/07/01 02:46:37;;;;;;;4.85;2.17;;;16.00;1.00;;;;;;5135205;27;20488;-23
2023/07/01 02:49:04;;;;;;;9.27;2.80;;;16.10;1.00;;;;;;5135556;27;20035;-23
2023/07/01 02:51:30;;;;;;;8.40;2.60;;;16.10;1.00;;;;;;5136069;27;20051;-23
2023/07/01 02:53:55;;;;;;;4.40;2.88;;;16.10;1.00;;;;;;5135354;27;20369;-23
2023/07/01 02:56:21;;;;;;;7.80;2.97;;;16.10;1.00;;;;;;5135364;27;20047;-23
2023/07/01 02:58:47;;;;;;;5.85;2.40;;;16.10;99.90;;;;;;5135909;27;20039;-23
2023/07/01 03:01:13;;;;;;;7.32;2.85;;;16.10;99.90;;;;;;5135069;27;20459;-23
2023/07/01 03:03:40;;;;;;;5.55;2.45;;;16.20;99.90;;;;;;5135240;27;20434;-23
2023/07/01 03:06:06;;;;;;;9.40;3.10;;;16.20;99.90;;;;;;5135221;27;20438;-23
2023/07/01 03:08:31;;;;;;;10.45;3.58;;;16.20;99.90;;;;;;5135721;27;20047;-23
2023/07/01 03:10:57;;;;;;;7.45;3.35;;;16.20;1.00;;;;;;5135113;27;20049;-23
2023/07/01 03:13:22;;;;;;;9.63;4.30;;;16.20;8.80;;;;;;5135022;27;20074;-23
2023/07/01 03:15:49;;;;;;;8.13;3.97;;;16.20;64.00;;;;;;5117069;27;20100;-23
2023/07/01 03:18:14;;;;;;;10.10;4.32;;;16.20;99.90;;;;;;5117738;27;20051;-23
2023/07/01 03:20:40;;;;;;;12.52;4.07;;;16.20;99.90;;;;;;5134997;27;20108;-23
2023/07/01 03:23:06;;;;;;;9.13;4.05;;;16.10;99.90;;;;;;5116686;27;20035;-23
2023/07/01 03:25:32;;;;;;;8.27;3.55;;;16.00;99.90;;;;;;5135451;27;20051;-23
2023/07/01 03:27:57;;;;;;;7.95;4.32;;;16.00;99.90;;;;;;5099603;27;20110;-23
2023/07/01 03:30:29;;;;;;;6.13;4.22;;;15.90;99.90;;;;;;5134824;27;20066;-23
2023/07/01 03:32:56;;;;;;;4.50;3.60;;;15.80;99.90;;;;;;5134771;27;20481;-23
2023/07/01 03:35:22;;;;;;;7.82;4.00;;;15.80;99.90;;;;;;5135025;27;20047;-23
2023/07/01 03:37:48;;;;;;;11.10;5.47;;;15.70;99.90;;;;;;5134732;27;20126;-23
2023/07/01 03:40:14;;;;;;;8.57;5.20;;;15.50;99.90;;;;;;5134661;27;20130;-23
2023/07/01 03:42:40;;;;;;;11.57;5.22;;;15.40;99.90;;;;;;5133961;27;20435;-23
2023/07/01 03:45:08;;;;;;;9.75;6.75;;;15.30;99.90;;;;;;5134662;27;20086;-22
2023/07/01 03:47:44;;;;;;;9.20;6.90;;;15.30;99.90;;;;;;5116592;28;20043;-22
2023/07/01 03:50:10;;;;;;;10.98;6.03;;;15.20;99.90;;;;;;5134615;28;20051;-22
2023/07/01 03:52:37;;;;;;;12.27;7.25;;;15.20;99.90;;;;;;5134519;28;20404;-22
2023/07/01 03:55:04;;;;;;;12.50;7.45;;;15.10;99.90;;;;;;5116339;28;20136;-22
2023/07/01 03:57:30;;;;;;;9.35;7.05;;;15.10;99.90;;;;;;5116521;28;20051;-22
2023/07/01 03:59:55;;;;;;;11.77;7.93;;;15.10;99.90;;;;;;5134347;28;20500;-22
2023/07/01 04:02:21;;;;;;;10.55;7.82;;;15.10;99.90;;;;;;5134911;28;20059;-22
2023/07/01 04:04:47;;;;;;;8.68;7.47;;;15.10;99.90;;;;;;5116357;28;20039;-22
2023/07/01 04:07:13;;;;;;;10.10;6.63;;;15.10;99.90;;;;;;5117208;28;20453;-22
2023/07/01 04:09:39;;;;;;;11.98;8.00;;;15.10;99.90;;;;;;5134457;28;20082;-22
2023/07/01 04:12:05;;;;;;;11.20;8.25;;;15.10;99.90;;;;;;5134406;28;20039;-22
2023/07/01 04:14:31;;;;;;;10.45;7.50;;;15.10;99.90;;;;;;5134637;28;20045;-22
2023/07/01 04:16:56;;;;;;;11.13;8.43;;;15.10;99.90;;;;;;5134390;28;20055;-22
2023/07/01 04:19:23;;;;;;;12.68;7.97;;;15.10;99.90;;;;;;5134360;28;20047;-21
2023/07/01 04:21:48;;;;;;;12.52;8.63;;;15.10;99.90;;;;;;5134115;28;20047;-22
2023/07/01 04:24:14;;;;;;;12.25;8.60;;;15.10;99.90;;;;;;5134358;28;20440;-22
2023/07/01 04:26:44;;;;;;;13.32;8.68;;;15.00;99.90;;;;;;5134296;28;20085;-21
2023/07/01 04:29:10;;;;;;;13.13;8.02;;;15.00;99.90;;;;;;5134205;28;20484;-22
2023/07/01 04:31:35;;;;;;;12.35;7.47;;;15.00;99.90;;;;;;5116643;28;20066;-21
2023/07/01 04:34:01;;;;;;;10.00;7.93;;;15.00;99.90;;;;;;5134165;28;20047;-22
2023/07/01 04:36:27;;;;;;;13.77;8.40;;;15.00;99.90;;;;;;5134742;28;20051;-21
2023/07/01 04:38:53;;;;;;;17.42;8.85;;;14.90;99.90;;;;;;5134166;28;20461;-20
2023/07/01 04:41:18;;;;;;;11.73;7.80;;;15.00;99.90;;;;;;5134383;28;20107;-20
2023/07/01 04:43:44;;;;;;;15.75;8.93;;;15.00;99.90;;;;;;5134061;28;20040;-21
2023/07/01 04:46:10;;;;;;;13.20;9.00;;;15.00;99.90;;;;;;5134756;28;20039;-21
2023/07/01 04:48:36;;;;;;;10.75;7.22;;;14.90;99.90;;;;;;5116842;28;20047;-21
2023/07/01 04:51:01;;;;;;;14.02;8.20;;;14.90;99.90;;;;;;5134101;28;20043;-21
2023/07/01 04:53:28;;;;;;;10.85;8.70;;;15.00;99.90;;;;;;5115449;28;20050;-20
2023/07/01 04:55:53;;;;;;;14.15;8.23;;;14.90;99.90;;;;;;5136802;27;20047;-20
2023/07/01 04:58:19;;;;;;;11.35;7.93;;;15.00;99.90;;;;;;5137695;27;20434;-20
2023/07/01 05:00:45;;;;;;;9.48;6.90;;;15.00;99.90;;;;;;5137544;27;20047;-20
2023/07/01 05:03:11;;;;;;;14.55;9.10;;;15.00;99.90;;;;;;5137590;27;20043;-21
2023/07/01 05:05:36;;;;;;;10.38;8.40;;;15.00;99.90;;;;;;5137595;27;20047;-21
2023/07/01 05:08:02;;;;;;;10.10;7.22;;;15.10;99.90;;;;;;5137478;27;20480;-21
2023/07/01 05:10:28;;;;;;;14.27;8.20;;;15.10;99.90;;;;;;5137745;27;20051;-21
2023/07/01 05:12:54;;;;;;;14.75;8.75;;;15.20;99.90;;;;;;5120027;27;20035;-21
2023/07/01 05:15:19;;;;;;;10.10;7.05;;;15.20;99.90;;;;;;5137358;27;20152;-21
2023/07/01 05:17:45;;;;;;;12.13;8.38;;;15.20;99.90;;;;;;5137270;27;20093;-21
2023/07/01 05:20:12;;;;;;;11.10;8.40;;;15.20;99.90;;;;;;5119715;27;20167;-21
2023/07/01 05:22:37;;;;;;;13.05;8.15;;;15.20;99.90;;;;;;5137212;27;20058;-21
2023/07/01 05:25:04;;;;;;;9.82;7.45;;;15.30;99.90;;;;;;5119830;27;20040;-21
2023/07/01 05:27:30;;;;;;;14.32;9.05;;;15.30;99.90;;;;;;5118858;27;20400;-21
2023/07/01 05:29:57;;;;;;;8.32;6.35;;;15.30;99.90;;;;;;5137024;27;20047;-21
2023/07/01 05:32:25;;;;;;;10.27;7.15;;;15.30;99.90;;;;;;5137049;27;20047;-21
2023/07/01 05:34:51;;;;;;;11.63;7.35;;;15.30;99.90;;;;;;5118811;27;20051;-20
2023/07/01 05:37:17;;;;;;;13.07;8.40;;;15.30;99.90;;;;;;5136609;27;20051;-21
2023/07/01 05:39:42;;;;;;;12.52;7.45;;;15.30;99.90;;;;;;5137441;27;20043;-21
2023/07/01 05:42:08;;;;;;;11.43;9.57;;;15.30;99.90;;;;;;5101754;27;20146;-22
2023/07/01 05:44:34;;;;;;;12.68;10.18;;;15.30;99.90;;;;;;5136499;27;20532;-21
2023/07/01 05:46:59;;;;;;;10.93;9.32;;;15.30;99.90;;;;;;5136843;27;20057;-21
2023/07/01 05:49:27;;;;;;;15.27;10.02;;;15.30;99.90;;;;;;5137003;27;20039;-21
2023/07/01 05:51:53;;;;;;;12.38;8.98;;;15.40;99.90;;;;;;5136687;27;20066;-21
2023/07/01 05:54:19;;;;;;;14.25;10.02;;;15.30;99.90;;;;;;5136575;27;20481;-21
2023/07/01 05:56:47;;;;;;;10.45;8.73;;;15.40;99.90;;;;;;5137197;27;20047;-21
2023/07/01 05:59:13;;;;;;;16.08;9.18;;;15.50;99.90;;;;;;5119209;27;20074;-21
2023/07/01 06:01:41;;;;;;;9.95;7.78;;;15.50;99.90;;;;;;5136113;27;20484;-22
2023/07/01 06:04:07;;;;;;;10.93;9.02;;;15.50;99.90;;;;;;5136719;27;20043;-20
2023/07/01 06:06:39;;;;;;;17.42;10.75;;;15.50;99.90;;;;;;5117871;27;20134;-20
2023/07/01 06:09:08;;;;;;;11.18;9.45;;;15.60;99.90;;;;;;5136475;27;20099;-21
2023/07/01 06:11:34;;;;;;;11.65;10.40;;;15.50;99.90;;;;;;5118198;27;20051;-21
2023/07/01 06:14:00;;;;;;;13.98;8.85;;;15.40;99.90;;;;;;5136817;27;20096;-22
2023/07/01 06:16:25;;;;;;;16.88;11.05;;;15.40;99.90;;;;;;5136180;27;20046;-27
2023/07/01 06:18:51;;;;;;;12.30;10.75;;;15.40;99.90;;;;;;5136461;27;20051;-26
2023/07/01 06:21:19;;;;;;;13.35;11.38;;;15.60;99.90;;;;;;5118400;27;20469;-26
2023/07/01 06:23:45;;;;;;;12.55;9.98;;;15.60;99.90;;;;;;5118660;27;20054;-27
2023/07/01 06:26:10;;;;;;;10.55;8.50;;;15.50;99.90;;;;;;5101544;27;20089;-26
2023/07/01 06:28:38;;;;;;;14.82;11.93;;;15.60;99.90;;;;;;5118161;27;20385;-26
2023/07/01 06:31:04;;;;;;;12.35;9.50;;;15.50;99.90;;;;;;5136022;27;20404;-26
2023/07/01 06:33:30;;;;;;;15.68;10.50;;;15.50;99.90;;;;;;5100520;27;20046;-27
2023/07/01 06:35:56;;;;;;;11.68;9.10;;;15.50;99.90;;;;;;5135726;27;20403;-26
2023/07/01 06:38:21;;;;;;;13.13;11.00;;;15.80;99.90;;;;;;5136235;27;20051;-26
2023/07/01 06:40:47;;;;;;;11.55;9.20;;;15.80;99.90;;;;;;5135543;27;20130;-26
2023/07/01 06:43:13;;;;;;;12.15;10.90;;;15.70;99.90;;;;;;5135538;27;20039;-26
2023/07/01 06:45:38;;;;;;;11.10;10.00;;;15.70;99.90;;;;;;5100420;27;20050;-26
2023/07/01 06:48:05;;;;;;;12.88;11.50;;;15.60;99.90;;;;;;5135775;27;20146;-26
2023/07/01 06:50:30;;;;;;;12.35;10.75;;;15.60;99.90;;;;;;5117163;27;20054;-28
2023/07/01 06:52:56;;;;;;;13.48;11.63;;;15.90;99.90;;;;;;5135355;27;20047;-27
2023/07/01 06:55:24;;;;;;;12.45;10.60;;;15.70;99.90;;;;;;5135413;27;20121;-28
2023/07/01 06:57:52;;;;;;;14.70;12.13;;;15.60;99.90;;;;;;5136144;27;20099;-29
2023/07/01 07:00:18;;;;;;;11.02;9.80;;;15.90;99.90;;;;;;5116482;27;20468;-28
2023/07/01 07:02:44;;;;;;;9.80;8.80;;;15.70;99.90;;;;;;5135345;27;20082;-29
2023/07/01 07:05:10;;;;;;;13.85;9.02;;;15.80;99.90;;;;;;5116991;27;20090;-28
2023/07/01 07:07:35;;;;;;;9.15;8.20;;;15.90;99.90;;;;;;5135527;27;20097;-30
2023/07/01 07:10:01;;;;;;;12.63;9.48;;;15.70;99.90;;;;;;5136061;27;20106;-30
2023/07/01 07:12:27;;;;;;;9.07;7.60;;;15.90;99.90;;;;;;5135137;27;20039;-32
2023/07/01 07:14:52;;;;;;;7.32;6.57;;;16.10;99.90;;;;;;5134968;27;20043;-32
2023/07/01 07:17:18;;;;;;;7.97;7.18;;;16.00;99.90;;;;;;5100507;27;20062;-30
2023/07/01 07:19:44;;;;;;;7.85;5.88;;;16.00;99.90;;;;;;5134769;27;20047;-31
2023/07/01 07:22:10;;;;;;;7.90;7.20;;;16.10;99.90;;;;;;5134997;27;20054;-31
2023/07/01 07:24:35;;;;;;;6.82;6.22;;;16.10;99.90;;;;;;5117593;27;20039;-31
2023/07/01 07:27:02;;;;;;;7.13;6.43;;;15.90;99.90;;;;;;5135177;27;20130;-31
2023/07/01 07:29:29;;;;;;;7.35;6.18;;;16.20;99.90;;;;;;5117498;27;20127;-32
2023/07/01 07:31:55;;;;;;;7.60;6.45;;;16.00;99.90;;;;;;5134757;27;20047;-31
2023/07/01 07:34:24;;;;;;;6.57;5.28;;;16.30;99.90;;;;;;5134804;27;20035;-31
2023/07/01 07:36:50;;;;;;;5.82;5.30;;;16.30;99.90;;;;;;5134765;27;20099;-30
2023/07/01 07:39:16;;;;;;;5.53;5.03;;;16.30;99.90;;;;;;5116497;27;20079;-32
2023/07/01 07:41:43;;;;;;;6.00;5.50;;;16.50;99.90;;;;;;5135559;27;20377;-30
2023/07/01 07:44:09;;;;;;;5.03;4.53;;;16.10;99.90;;;;;;5135543;27;20043;-31
2023/07/01 07:46:35;;;;;;;6.30;5.70;;;16.50;99.90;;;;;;5134744;27;20541;-30
2023/07/01 07:49:04;;;;;;;8.43;6.47;;;16.50;99.90;;;;;;5134711;27;20047;-29
2023/07/01 07:51:30;;;;;;;6.95;6.35;;;16.60;99.90;;;;;;5134657;28;20047;-30
2023/07/01 07:53:56;;;;;;;5.28;4.65;;;16.60;99.90;;;;;;5099348;28;20039;-30
2023/07/01 07:56:22;;;;;;;7.70;6.57;;;16.20;99.90;;;;;;5135088;28;20054;-31
2023/07/01 07:58:48;;;;;;;6.72;6.00;;;16.60;99.90;;;;;;5099501;28;20039;-29
2023/07/01 08:01:13;;;;;;;5.15;4.65;;;16.70;99.90;;;;;;5134959;28;20055;-31
2023/07/01 08:03:40;;;;;;;5.35;4.85;;;16.80;99.90;;;;;;5134521;28;20050;-30
2023/07/01 08:06:06;;;;;;;7.45;5.35;;;16.90;99.90;;;;;;5116438;28;20082;-31
2023/07/01 08:08:32;;;;;;;4.88;4.22;;;16.80;99.90;;;;;;5116405;28;20043;-30
2023/07/01 08:10:59;;;;;;;4.50;4.10;;;16.60;99.90;;;;;;5134490;28;20090;-32
2023/07/01 08:13:25;;;;;;;4.75;4.35;;;16.80;99.90;;;;;;5134380;28;20043;-31
2023/07/01 08:15:51;;;;;;;3.60;3.30;;;17.00;99.90;;;;;;5134403;28;20035;-33
2023/07/01 08:18:16;;;;;;;17.40;8.50;;;16.60;99.90;;;;;;5134351;28;20050;-33
2023/07/01 08:20:44;;;;;;;12.35;6.22;;;16.80;99.90;;;;;;5134566;28;20422;-31
2023/07/01 08:23:11;;;;;;;7.15;5.10;;;16.60;99.90;;;;;;5099303;28;20054;-31
2023/07/01 08:25:41;;;;;;;6.72;4.57;;;16.90;99.90;;;;;;5134785;28;20043;-32
2023/07/01 08:28:07;;;;;;;5.45;4.47;;;16.60;99.90;;;;;;5134294;28;20047;-32
2023/07/01 08:30:32;;;;;;;4.25;3.85;;;16.80;99.90;;;;;;5137072;27;20088;-31
2023/07/01 08:32:58;;;;;;;5.95;4.25;;;17.00;99.90;;;;;;5138146;27;20047;-32
2023/07/01 08:35:24;;;;;;;9.10;4.75;;;16.70;99.90;;;;;;5118463;27;20047;-35
2023/07/01 08:37:50;;;;;;;7.45;4.20;;;16.50;99.90;;;;;;5137504;27;20039;-31
2023/07/01 08:40:15;;;;;;;20.25;9.07;;;16.70;99.90;;;;;;5109730;27;20549;-30
2023/07/01 08:42:50;;;;;;;4.80;4.32;;;17.20;99.90;;;;;;5133834;27;20519;-32
2023/07/01 08:45:16;;;;;;;4.85;3.47;;;16.90;99.90;;;;;;5138161;27;20078;-31
2023/07/01 08:47:42;;;;;;;7.25;5.47;;;16.80;99.90;;;;;;5119957;27;20043;-31
2023/07/01 08:50:09;;;;;;;6.53;5.30;;;16.80;99.90;;;;;;5138716;27;20047;-32
2023/07/01 08:52:42;;;;;;;8.30;4.70;;;17.40;99.90;;;;;;5119691;27;20039;-31
2023/07/01 08:55:10;;;;;;;7.75;5.07;;;17.00;99.90;;;;;;5138420;27;20047;-32
2023/07/01 08:57:38;;;;;;;8.07;5.13;;;16.90;99.90;;;;;;5137738;27;20054;-32
2023/07/01 09:00:06;;;;;;;4.40;3.38;;;16.80;99.90;;;;;;5138245;27;20372;-33
2023/07/01 09:02:32;;;;;;;4.07;3.15;;;16.90;99.90;;;;;;5137055;27;20050;-32
2023/07/01 09:04:59;;;;;;;6.97;4.00;;;16.60;99.90;;;;;;5120183;27;20488;-32
2023/07/01 09:07:25;;;;;;;5.13;3.83;;;16.70;99.90;;;;;;5137194;27;20039;-31
2023/07/01 09:09:50;;;;;;;4.65;4.18;;;16.80;99.90;;;;;;5136602;27;20438;-31
2023/07/01 09:12:16;;;;;;;4.82;3.13;;;16.80;99.90;;;;;;5137026;27;20092;-32
2023/07/01 09:15:01;;;;;;;3.95;3.40;;;17.40;99.90;;;;;;5137674;27;20035;-32
2023/07/01 09:17:34;;;;;;;4.47;3.25;;;16.70;99.90;;;;;;5137411;27;20090;-31
2023/07/01 09:20:00;;;;;;;;;;;17.30;99.90;;;;;;5138397;27;20051;-30
2023/07/01 09:22:28;;;;;;;2.35;2.15;;;17.00;99.90;;;;;;5137357;27;19966;-32
2023/07/01 09:24:55;;;;;;;2.28;1.90;;;17.50;99.90;;;;;;5119123;27;20497;-31
2023/07/01 09:27:21;;;;;;;2.75;2.53;;;17.10;99.90;;;;;;5137163;27;20054;-29
2023/07/01 09:29:46;;;;;;;2.75;1.65;;;17.40;99.90;;;;;;5118805;27;20092;-30
2023/07/01 09:32:26;;;;;;;3.20;1.55;;;17.10;99.90;;;;;;5137092;27;20043;-30
2023/07/01 09:35:01;;;;;;;1.60;1.35;;;17.50;99.90;;;;;;5137670;27;20042;-30
2023/07/01 09:37:28;;;;;;;2.60;1.70;;;17.30;99.90;;;;;;5119815;27;20047;-31
2023/07/01 09:39:54;;;;;;;3.92;1.70;;;17.40;99.90;;;;;;5136958;27;20078;-31
2023/07/01 09:42:20;;;;;;;1.80;1.70;;;17.30;99.90;;;;;;5136251;27;20089;-29
2023/07/01 09:45:15;;;;;;;2.85;1.83;;;16.90;99.90;;;;;;5119484;27;20042;-31
2023/07/01 09:47:40;;;;;;;2.85;2.38;;;17.40;99.90;;;;;;5114911;27;20090;-29
2023/07/01 09:50:07;;;;;;;2.10;1.48;;;17.50;99.90;;;;;;5118752;27;20090;-31
2023/07/01 09:52:33;;;;;;;2.53;1.92;;;17.70;99.90;;;;;;5136758;27;20053;-30
2023/07/01 09:55:06;;;;;;;4.72;3.05;;;17.10;99.90;;;;;;5136618;27;20156;-30
2023/07/01 09:57:32;;;;;;;3.95;3.05;;;17.70;99.90;;;;;;5118255;27;20039;-30
2023/07/01 09:59:59;;;;;;;3.60;3.30;;;17.60;99.90;;;;;;5136155;27;20561;-30
2023/07/01 10:02:26;;;;;;;4.22;3.83;;;17.80;99.90;;;;;;5118380;27;20080;-31
2023/07/01 10:04:53;;;;;;;5.70;5.07;;;17.40;99.90;;;;;;5117972;27;20058;-31
2023/07/01 10:07:19;;;;;;;7.43;5.40;;;17.80;99.90;;;;;;5118050;27;20055;-30
2023/07/01 10:09:51;;;;;;;9.60;6.53;;;17.70;99.90;;;;;;5118289;27;20511;-31
2023/07/01 10:12:17;;;;;;;9.68;6.57;;;17.50;99.90;;;;;;5117957;27;20043;-31
2023/07/01 10:14:50;;;;;;;9.15;7.43;;;18.00;99.90;;;;;;5135780;27;20388;-31
2023/07/01 10:17:18;;;;;;;8.90;7.95;;;17.90;99.90;;;;;;5118723;27;20137;-31
2023/07/01 10:19:46;;;;;;;8.07;6.78;;;18.10;99.90;;;;;;5118104;27;20051;-32
2023/07/01 10:22:31;;;;;;;8.65;7.55;;;18.60;99.90;;;;;;5118029;27;20051;-32
2023/07/01 10:25:05;;;;;;;9.18;7.45;;;18.60;99.90;;;;;;5136145;27;20108;-31
2023/07/01 10:27:40;;;;;;;7.93;7.00;;;18.60;99.90;;;;;;5136652;27;20175;-32
2023/07/01 10:30:10;;;;;;;8.77;7.85;;;17.80;99.90;;;;;;5136165;27;20043;-32
2023/07/01 10:32:36;;;;;;;7.68;6.50;;;18.20;99.90;;;;;;5101407;27;20047;-32
2023/07/01 10:35:05;;;;;;;9.70;7.78;;;17.80;99.90;;;;;;5135862;27;20057;-33
2023/07/01 10:37:32;;;;;;;9.90;7.30;;;18.10;99.90;;;;;;5136670;27;20050;-33
2023/07/01 10:40:08;;;;;;;10.00;7.55;;;17.40;99.90;;;;;;5117716;27;20047;-34
2023/07/01 10:42:36;;;;;;;9.25;6.70;;;17.40;99.90;;;;;;5118211;27;20427;-34
2023/07/01 10:45:11;;;;;;;8.77;7.07;;;17.90;99.90;;;;;;5118401;27;20051;-36
2023/07/01 10:48:03;;;;;;;9.40;7.95;;;17.90;99.90;;;;;;5135603;27;20047;-37
2023/07/01 10:50:29;;;;;;;9.35;8.45;;;18.00;99.90;;;;;;5118351;27;20057;-38
2023/07/01 10:53:04;;;;;;;10.88;7.60;;;17.80;99.90;;;;;;5135410;27;20047;-39
2023/07/01 10:55:43;;;;;;;8.15;5.85;;;17.80;99.90;;;;;;5117822;27;20043;-41
2023/07/01 10:58:24;;;;;;;7.78;6.32;;;18.30;99.90;;;;;;5135513;27;20085;-41
2023/07/01 11:00:51;;;;;;;10.80;7.53;;;18.00;99.90;;;;;;5135489;27;20062;-40
2023/07/01 11:03:42;;;;;;;8.38;6.78;;;18.30;99.90;;;;;;5135358;27;20125;-41
2023/07/01 11:06:12;;;;;;;9.90;7.18;;;18.50;99.90;;;;;;5135975;27;20058;-42
2023/07/01 11:08:51;;;;;;;8.48;7.65;;;18.00;99.90;;;;;;5135247;27;20088;-41
2023/07/01 11:11:19;;;;;;;6.63;5.97;;;18.40;99.90;;;;;;5135564;27;20046;-42
2023/07/01 11:13:55;;;;;;;7.20;5.68;;;18.10;99.90;;;;;;5116914;27;20047;-43
2023/07/01 11:16:21;;;;;;;7.45;5.35;;;17.90;99.90;;;;;;5135106;27;20047;-41
2023/07/01 11:18:49;;;;;;;6.35;5.75;;;17.80;99.90;;;;;;5117044;27;20054;-43
2023/07/01 11:21:20;;;;;;;7.75;6.32;;;17.70;99.90;;;;;;5135072;27;20043;-43
2023/07/01 11:23:59;;;;;;;7.20;6.60;;;18.10;99.90;;;;;;5116657;27;20055;-42
2023/07/01 11:26:29;;;;;;;6.93;6.22;;;17.90;99.90;;;;;;5135269;27;20045;-42
2023/07/01 11:28:55;;;;;;;10.23;6.53;;;17.80;99.90;;;;;;5116899;27;20043;-43
2023/07/01 11:31:24;;;;;;;9.05;7.47;;;17.90;99.90;;;;;;5116777;27;20434;-42
2023/07/01 11:33:57;;;;;;;8.80;7.13;;;17.90;99.90;;;;;;5134412;27;20497;-42
2023/07/01 11:36:48;;;;;;;9.13;7.65;;;17.90;99.90;;;;;;5117477;27;20481;-42
2023/07/01 11:39:18;;;;;;;9.45;7.47;;;17.80;99.90;;;;;;5134890;27;20047;-41
2023/07/01 11:41:47;;;;;;;10.73;8.35;;;17.90;99.90;;;;;;5135290;27;20530;-41
2023/07/01 11:44:15;;;;;;;9.13;7.45;;;17.80;99.90;;;;;;5116450;28;20039;-42
2023/07/01 11:46:43;;;;;;;9.02;7.10;;;17.60;99.90;;;;;;5134731;27;20408;-42
2023/07/01 11:49:14;;;;;;;9.02;7.00;;;17.80;99.90;;;;;;5134579;27;20400;-42
2023/07/01 11:51:47;;;;;;;7.63;6.70;;;18.10;99.90;;;;;;5132426;27;20111;-42
2023/07/01 11:54:19;;;;;;;6.20;5.20;;;17.90;99.90;;;;;;5132048;28;20035;-42
2023/07/01 11:57:11;;;;;;;7.20;5.50;;;17.90;99.90;;;;;;5132424;28;20088;-39
2023/07/01 11:59:44;;;;;;;9.63;7.05;;;18.10;99.90;;;;;;5115825;28;20043;-38
2023/07/01 12:02:10;;;;;;;14.70;7.00;;;18.40;99.90;;;;;;5133592;28;20063;-38
2023/07/01 12:04:39;;;;;;;7.43;6.13;;;18.60;99.90;;;;;;5116173;27;20040;-35
2023/07/01 12:07:18;;;;;;;8.40;6.05;;;18.30;99.90;;;;;;5136120;27;20488;-36
2023/07/01 12:09:48;;;;;;;8.82;6.78;;;18.20;99.90;;;;;;5137748;27;20047;-36
2023/07/01 12:12:43;;;;;;;15.23;6.63;;;18.20;99.90;;;;;;5137737;27;20042;-33
2023/07/01 12:15:11;;;;;;;6.95;6.22;;;18.20;99.90;;;;;;5131767;27;20051;-33
2023/07/01 12:17:37;;;;;;;7.97;6.75;;;18.30;99.90;;;;;;5138597;27;20039;-34
2023/07/01 12:20:06;;;;;;;9.60;7.07;;;18.30;99.90;;;;;;5139323;27;20046;-34
2023/07/01 12:22:32;;;;;;;7.35;6.53;;;18.70;99.90;;;;;;5138478;27;20054;-32
2023/07/01 12:24:59;;;;;;;9.18;5.15;;;19.10;99.90;;;;;;5118834;27;20043;-32
2023/07/01 12:27:25;;;;;;;9.25;3.90;;;18.90;99.90;;;;;;5135547;27;20092;-32
2023/07/01 12:29:51;;;;;;;6.32;3.97;;;18.70;99.90;;;;;;5117912;27;20032;-32
2023/07/01 12:32:17;;;;;;;5.53;3.72;;;18.70;99.90;;;;;;5136963;27;20086;-33
2023/07/01 12:34:43;;;;;;;5.85;3.28;;;18.60;99.90;;;;;;5137494;27;20039;-31
2023/07/01 12:37:10;;;;;;;5.80;3.88;;;18.80;99.90;;;;;;5120116;27;20545;-30
2023/07/01 12:39:36;;;;;;;6.90;3.85;;;19.20;99.90;;;;;;5120617;27;20054;-30
2023/07/01 12:42:02;;;;;;;9.05;4.40;;;19.50;99.90;;;;;;5120845;27;20049;-30
2023/07/01 12:44:28;;;;;;;6.28;3.15;;;19.30;99.90;;;;;;5136048;27;20480;-30
2023/07/01 12:46:54;;;;;;;4.05;3.53;;;18.90;99.90;;;;;;5119727;27;20043;-30
2023/07/01 12:49:19;;;;;;;4.35;3.80;;;18.70;99.90;;;;;;5138771;27;20051;-28